createdAt,value
2023-05-16T00:01:20.696Z,75601.19
2023-05-16T00:03:48.713Z,75597.09
2023-05-16T00:06:16.941Z,75597.09
2023-05-16T00:08:44.664Z,75597.09
2023-05-16T00:11:12.568Z,75593.03
2023-05-16T00:13:42.484Z,75597.09
2023-05-16T00:16:11.712Z,75595.06
2023-05-16T00:18:41.022Z,75593.03
2023-05-16T00:21:08.804Z,75595.06
2023-05-16T00:23:36.540Z,75597.09
2023-05-16T00:26:04.333Z,75601.19
2023-05-16T00:28:32.361Z,75601.19
2023-05-16T00:31:00.109Z,75595.06
2023-05-16T00:33:27.895Z,75591.00
2023-05-16T00:35:57.003Z,75595.06
2023-05-16T00:38:25.901Z,75593.03
2023-05-16T00:40:55.830Z,75603.22
2023-05-16T00:43:23.564Z,75605.25
2023-05-16T00:45:51.319Z,75617.50
2023-05-16T00:48:19.795Z,75621.56
2023-05-16T00:50:47.738Z,75625.63
2023-05-16T00:53:16.891Z,75621.56
2023-05-16T00:55:44.914Z,75629.72
2023-05-16T00:58:13.476Z,75637.88
2023-05-16T01:00:41.517Z,75637.88
2023-05-16T01:03:10.059Z,75637.88
2023-05-16T01:05:37.885Z,75646.03
2023-05-16T01:08:05.881Z,75648.06
2023-05-16T01:10:45.100Z,75650.09
2023-05-16T01:13:19.452Z,75648.06
2023-05-16T01:15:55.213Z,75652.13
2023-05-16T01:18:37.728Z,75652.13
2023-05-16T01:21:11.274Z,75654.19
2023-05-16T01:23:52.526Z,75658.25
2023-05-16T01:26:23.645Z,75662.34
2023-05-16T01:28:52.869Z,75656.22
2023-05-16T01:31:21.129Z,75654.19
2023-05-16T01:33:49.733Z,75648.06
2023-05-16T01:36:25.602Z,75662.34
2023-05-16T01:39:07.755Z,75660.28
2023-05-16T01:41:53.153Z,75658.25
2023-05-16T01:44:26.759Z,75652.13
2023-05-16T01:46:59.021Z,75646.03
2023-05-16T01:49:32.391Z,75637.88
2023-05-16T01:52:03.256Z,75631.75
2023-05-16T01:54:33.502Z,75631.75
2023-05-16T01:57:06.042Z,75637.88
2023-05-16T01:59:35.097Z,75633.78
2023-05-16T02:02:03.740Z,75629.72
2023-05-16T02:04:31.667Z,75633.78
2023-05-16T02:07:00.510Z,75625.63
2023-05-16T02:09:28.289Z,75629.72
2023-05-16T02:11:56.079Z,75627.69
2023-05-16T02:14:25.962Z,75629.72
2023-05-16T02:16:53.782Z,75633.78
2023-05-16T02:19:21.696Z,75633.78
2023-05-16T02:21:49.678Z,75629.72
2023-05-16T02:24:17.400Z,75627.69
2023-05-16T02:26:45.165Z,75629.72
2023-05-16T02:29:12.967Z,75627.69
2023-05-16T02:31:42.788Z,75625.63
2023-05-16T02:34:10.964Z,75625.63
2023-05-16T02:36:38.773Z,75629.72
2023-05-16T02:39:07.706Z,75627.69
2023-05-16T02:41:35.493Z,75627.69
2023-05-16T02:44:03.278Z,75621.56
2023-05-16T02:46:32.514Z,75613.41
2023-05-16T02:49:01.906Z,75617.50
2023-05-16T02:51:29.991Z,75613.41
2023-05-16T02:53:59.712Z,75621.56
2023-05-16T02:56:27.696Z,75613.41
2023-05-16T02:58:56.262Z,75605.25
2023-05-16T03:01:24.139Z,75609.34
2023-05-16T03:03:52.152Z,75609.34
2023-05-16T03:06:21.403Z,75617.50
2023-05-16T03:08:49.156Z,75607.28
2023-05-16T03:11:20.508Z,75605.25
2023-05-16T03:13:48.356Z,75597.09
2023-05-16T03:16:16.701Z,75591.00
2023-05-16T03:18:44.627Z,75580.78
2023-05-16T03:21:12.471Z,75584.88
2023-05-16T03:23:41.701Z,75580.78
2023-05-16T03:26:09.446Z,75580.78
2023-05-16T03:28:38.118Z,75578.75
2023-05-16T03:31:06.219Z,75584.88
2023-05-16T03:33:34.065Z,75584.88
2023-05-16T03:36:02.122Z,75588.94
2023-05-16T03:38:30.089Z,75582.84
2023-05-16T03:40:59.173Z,75568.56
2023-05-16T03:43:26.940Z,75568.56
2023-05-16T03:45:54.703Z,75562.44
2023-05-16T03:48:22.608Z,75562.44
2023-05-16T03:50:51.441Z,75556.34
2023-05-16T03:53:19.245Z,75542.06
2023-05-16T03:55:48.637Z,75531.88
2023-05-16T03:58:18.148Z,75540.03
2023-05-16T04:00:46.875Z,75540.03
2023-05-16T04:03:14.856Z,75533.91
2023-05-16T04:05:42.787Z,75531.88
2023-05-16T04:08:10.674Z,75531.88
2023-05-16T04:10:38.469Z,75527.78
2023-05-16T04:13:06.403Z,75531.88
2023-05-16T04:15:35.470Z,75519.63
2023-05-16T04:18:03.384Z,75525.75
2023-05-16T04:20:32.910Z,75519.63
2023-05-16T04:23:00.950Z,75511.47
2023-05-16T04:25:29.185Z,75515.56
2023-05-16T04:27:57.301Z,75509.44
2023-05-16T04:30:25.033Z,75511.47
2023-05-16T04:32:54.184Z,75511.47
2023-05-16T04:35:22.919Z,75515.56
2023-05-16T04:37:51.180Z,75523.72
2023-05-16T04:40:18.975Z,75511.47
2023-05-16T04:42:46.949Z,75511.47
2023-05-16T04:45:15.044Z,75511.47
2023-05-16T04:47:42.925Z,75499.25
2023-05-16T04:50:12.871Z,75503.34
2023-05-16T04:52:40.710Z,75503.34
2023-05-16T04:55:09.514Z,75491.09
2023-05-16T04:57:37.325Z,75495.19
2023-05-16T05:00:08.221Z,75482.94
2023-05-16T05:02:35.970Z,75476.84
2023-05-16T05:05:03.923Z,75466.63
2023-05-16T05:07:33.651Z,75460.53
2023-05-16T05:10:01.397Z,75454.41
2023-05-16T05:12:29.223Z,75446.25
2023-05-16T05:14:58.072Z,75446.25
2023-05-16T05:17:26.143Z,75434.03
2023-05-16T05:19:53.951Z,75423.84
2023-05-16T05:22:21.774Z,75413.66
2023-05-16T05:24:50.986Z,75407.53
2023-05-16T05:27:18.844Z,75417.72
2023-05-16T05:29:46.912Z,75409.56
2023-05-16T05:32:16.490Z,75401.41
2023-05-16T05:34:44.534Z,75401.41
2023-05-16T05:37:12.302Z,75393.25
2023-05-16T05:39:40.075Z,75383.06
2023-05-16T05:42:09.489Z,75370.84
2023-05-16T05:44:37.893Z,75358.59
2023-05-16T05:47:06.905Z,75348.41
2023-05-16T05:49:35.889Z,75336.19
2023-05-16T05:52:03.759Z,75336.19
2023-05-16T05:54:31.581Z,75334.16
2023-05-16T05:56:59.439Z,75326.00
2023-05-16T05:59:28.562Z,75315.81
2023-05-16T06:01:56.433Z,75313.75
2023-05-16T06:04:24.203Z,75315.81
2023-05-16T06:06:52.014Z,75311.72
2023-05-16T06:09:19.803Z,75307.66
2023-05-16T06:11:47.516Z,75307.66
2023-05-16T06:14:15.867Z,75295.41
2023-05-16T06:16:45.059Z,75279.09
2023-05-16T06:19:16.218Z,75279.09
2023-05-16T06:21:44.594Z,75275.03
2023-05-16T06:24:12.600Z,75254.66
2023-05-16T06:26:40.498Z,75238.34
2023-05-16T06:29:08.761Z,75232.22
2023-05-16T06:31:36.793Z,75222.03
2023-05-16T06:34:06.037Z,75230.19
2023-05-16T06:36:33.831Z,75230.19
2023-05-16T06:39:01.570Z,75222.03
2023-05-16T06:41:29.295Z,75226.13
2023-05-16T06:43:57.535Z,75226.13
2023-05-16T06:46:26.297Z,75234.28
2023-05-16T06:48:54.145Z,75224.06
2023-05-16T06:51:23.546Z,75217.97
2023-05-16T06:53:51.297Z,75217.97
2023-05-16T06:56:19.146Z,75222.03
2023-05-16T06:58:46.993Z,75222.03
2023-05-16T07:01:14.786Z,75222.03
2023-05-16T07:03:42.823Z,75222.03
2023-05-16T07:06:10.716Z,75226.13
2023-05-16T07:08:39.827Z,75230.19
2023-05-16T07:11:07.648Z,75238.34
2023-05-16T07:13:36.216Z,75236.31
2023-05-16T07:16:04.351Z,75234.28
2023-05-16T07:18:32.220Z,75228.16
2023-05-16T07:21:00.059Z,75232.22
2023-05-16T07:23:27.933Z,75234.28
2023-05-16T07:25:57.083Z,75234.28
2023-05-16T07:28:24.995Z,75234.28
2023-05-16T07:30:52.806Z,75234.28
2023-05-16T07:33:20.705Z,75234.28
2023-05-16T07:35:48.617Z,75238.34
2023-05-16T07:38:16.702Z,75232.22
2023-05-16T07:40:44.675Z,75222.03
2023-05-16T07:43:14.124Z,75222.03
2023-05-16T07:45:42.282Z,75213.88
2023-05-16T07:48:10.606Z,75209.81
2023-05-16T07:50:39.416Z,75205.72
2023-05-16T07:53:08.251Z,75207.78
2023-05-16T07:55:37.254Z,75197.56
2023-05-16T07:58:05.465Z,75199.63
2023-05-16T08:00:35.256Z,75207.78
2023-05-16T08:03:03.265Z,75215.91
2023-05-16T08:05:32.243Z,75211.84
2023-05-16T08:08:00.274Z,75213.88
2023-05-16T08:10:28.149Z,75205.72
2023-05-16T08:12:56.059Z,75217.97
2023-05-16T08:15:23.913Z,75220.00
2023-05-16T08:17:53.508Z,75224.06
2023-05-16T08:20:21.280Z,75232.22
2023-05-16T08:22:49.146Z,75232.22
2023-05-16T08:25:16.974Z,75234.28
2023-05-16T08:27:46.233Z,75238.34
2023-05-16T08:30:15.227Z,75252.63
2023-05-16T08:32:43.660Z,75250.56
2023-05-16T08:35:13.353Z,75258.72
2023-05-16T08:37:41.200Z,75258.72
2023-05-16T08:40:11.814Z,75254.66
2023-05-16T08:42:42.351Z,75258.72
2023-05-16T08:45:12.282Z,75250.56
2023-05-16T08:47:41.893Z,75260.75
2023-05-16T08:50:12.145Z,75254.66
2023-05-16T08:52:43.232Z,75248.53
2023-05-16T08:55:12.774Z,75240.38
2023-05-16T08:57:41.730Z,75238.34
2023-05-16T09:00:13.266Z,75238.34
2023-05-16T09:02:41.835Z,75238.34
2023-05-16T09:05:12.849Z,75246.50
2023-05-16T09:07:41.099Z,75250.56
2023-05-16T09:10:09.932Z,75246.50
2023-05-16T09:12:38.427Z,75250.56
2023-05-16T09:15:09.551Z,75256.69
2023-05-16T09:17:42.121Z,75250.56
2023-05-16T09:20:13.352Z,75256.69
2023-05-16T09:22:50.724Z,75254.66
2023-05-16T09:25:29.335Z,75254.66
2023-05-16T09:28:01.204Z,75256.69
2023-05-16T09:30:32.125Z,75254.66
2023-05-16T09:33:00.623Z,75256.69
2023-05-16T09:35:43.849Z,75250.56
2023-05-16T09:38:16.902Z,75234.28
2023-05-16T09:40:45.898Z,75230.19
2023-05-16T09:43:17.385Z,75222.03
2023-05-16T09:45:48.192Z,75217.97
2023-05-16T09:48:16.946Z,75205.72
2023-05-16T09:50:52.325Z,75201.66
2023-05-16T09:53:26.525Z,75213.88
2023-05-16T09:56:01.970Z,75215.91
2023-05-16T09:58:31.153Z,75240.38
2023-05-16T10:01:00.612Z,75246.50
2023-05-16T10:03:28.890Z,75254.66
2023-05-16T10:05:58.549Z,75256.69
2023-05-16T10:08:27.797Z,75264.84
2023-05-16T10:10:57.606Z,75266.88
2023-05-16T10:13:29.360Z,75275.03
2023-05-16T10:15:59.147Z,75281.16
2023-05-16T10:18:31.305Z,75285.22
2023-05-16T10:21:11.205Z,75279.09
2023-05-16T10:23:43.609Z,75295.41
2023-05-16T10:26:14.558Z,75305.59
2023-05-16T10:28:43.265Z,75313.75
2023-05-16T10:31:12.165Z,75315.81
2023-05-16T10:33:41.343Z,75311.72
2023-05-16T10:36:12.088Z,75307.66
2023-05-16T10:38:41.271Z,75311.72
2023-05-16T10:41:09.978Z,75311.72
2023-05-16T10:43:38.438Z,75307.66
2023-05-16T10:46:11.192Z,75301.53
2023-05-16T10:48:41.078Z,75295.41
2023-05-16T10:51:37.880Z,75291.34
2023-05-16T10:54:08.957Z,75289.31
2023-05-16T10:56:37.775Z,75283.19
2023-05-16T10:59:05.886Z,75287.25
2023-05-16T11:01:35.459Z,75279.09
2023-05-16T11:04:06.284Z,75279.09
2023-05-16T11:06:35.704Z,75273.00
2023-05-16T11:09:10.554Z,75260.75
2023-05-16T11:11:49.790Z,75262.81
2023-05-16T11:14:23.136Z,75254.66
2023-05-16T11:16:52.608Z,75250.56
2023-05-16T11:19:32.487Z,75258.72
2023-05-16T11:22:15.816Z,75244.47
2023-05-16T11:24:53.938Z,75242.41
2023-05-16T11:27:27.913Z,75244.47
2023-05-16T11:29:57.732Z,75254.66
2023-05-16T11:32:26.630Z,75254.66
2023-05-16T11:34:55.522Z,75258.72
2023-05-16T11:37:23.356Z,75262.81
2023-05-16T11:39:54.070Z,75258.72
2023-05-16T11:42:22.084Z,75250.56
2023-05-16T11:44:50.207Z,75234.28
2023-05-16T11:47:18.266Z,75232.22
2023-05-16T11:49:48.778Z,75240.38
2023-05-16T11:52:18.190Z,75238.34
2023-05-16T11:54:46.425Z,75228.16
2023-05-16T11:57:16.506Z,75232.22
2023-05-16T11:59:44.425Z,75215.91
2023-05-16T12:02:12.253Z,75217.97
2023-05-16T12:04:41.025Z,75211.84
2023-05-16T12:07:11.436Z,75203.69
2023-05-16T12:09:41.551Z,75203.69
2023-05-16T12:12:11.038Z,75209.81
2023-05-16T12:14:41.811Z,75209.81
2023-05-16T12:17:09.997Z,75217.97
2023-05-16T12:19:37.928Z,75222.03
2023-05-16T12:22:06.446Z,75213.88
2023-05-16T12:24:34.347Z,75209.81
2023-05-16T12:27:02.218Z,75203.69
2023-05-16T12:29:30.097Z,75195.53
2023-05-16T12:32:01.613Z,75201.66
2023-05-16T12:34:30.809Z,75189.44
2023-05-16T12:37:02.032Z,75179.25
2023-05-16T12:39:39.828Z,75189.44
2023-05-16T12:42:10.254Z,75197.56
2023-05-16T12:44:41.005Z,75201.66
2023-05-16T12:47:14.427Z,75201.66
2023-05-16T12:49:46.821Z,75201.66
2023-05-16T12:52:20.712Z,75213.88
2023-05-16T12:54:49.451Z,75201.66
2023-05-16T12:57:17.320Z,75213.88
2023-05-16T12:59:45.630Z,75209.81
2023-05-16T13:02:14.926Z,75213.88
2023-05-16T13:04:42.968Z,75211.84
2023-05-16T13:07:11.998Z,75209.81
2023-05-16T13:09:41.848Z,75217.97
2023-05-16T13:12:19.738Z,75217.97
2023-05-16T13:14:47.733Z,75209.81
2023-05-16T13:17:16.917Z,75217.97
2023-05-16T13:19:46.385Z,75222.03
2023-05-16T13:22:16.057Z,75215.91
2023-05-16T13:24:44.368Z,75217.97
2023-05-16T13:27:12.150Z,75205.72
2023-05-16T13:29:40.769Z,75209.81
2023-05-16T13:32:09.292Z,75213.88
2023-05-16T13:34:38.703Z,75215.91
2023-05-16T13:37:06.643Z,75217.97
2023-05-16T13:39:34.801Z,75213.88
2023-05-16T13:42:03.320Z,75197.56
2023-05-16T13:44:31.310Z,75199.63
2023-05-16T13:46:59.145Z,75197.56
2023-05-16T13:49:26.904Z,75201.66
2023-05-16T13:51:58.217Z,75197.56
2023-05-16T13:54:26.513Z,75195.53
2023-05-16T13:56:54.682Z,75197.56
2023-05-16T13:59:45.000Z,75193.50
2023-05-16T14:02:13.207Z,75203.69
2023-05-16T14:04:41.472Z,75201.66
2023-05-16T14:07:11.385Z,75207.78
2023-05-16T14:09:43.283Z,75209.81
2023-05-16T14:12:11.301Z,75211.84
2023-05-16T14:14:40.681Z,75215.91
2023-05-16T14:17:10.853Z,75226.13
2023-05-16T14:19:40.075Z,75224.06
2023-05-16T14:22:09.269Z,75232.22
2023-05-16T14:24:41.109Z,75217.97
2023-05-16T14:27:08.987Z,75209.81
2023-05-16T14:29:39.258Z,75197.56
2023-05-16T14:32:08.842Z,75189.44
2023-05-16T14:34:39.255Z,75185.34
2023-05-16T14:37:07.213Z,75181.28
2023-05-16T14:39:34.999Z,75169.03
2023-05-16T14:42:05.602Z,75169.03
2023-05-16T14:44:35.418Z,75162.94
2023-05-16T14:47:04.308Z,75158.84
2023-05-16T14:49:32.272Z,75148.66
2023-05-16T14:52:00.089Z,75136.44
2023-05-16T14:54:27.941Z,75128.28
2023-05-16T14:56:58.513Z,75116.06
2023-05-16T14:59:28.340Z,75111.97
2023-05-16T15:01:56.287Z,75109.94
2023-05-16T15:04:24.190Z,75095.66
2023-05-16T15:06:51.991Z,75083.44
2023-05-16T15:09:20.538Z,75083.44
2023-05-16T15:11:48.399Z,75083.44
2023-05-16T15:14:16.707Z,75099.75
2023-05-16T15:16:47.318Z,75091.59
2023-05-16T15:19:15.846Z,75087.50
2023-05-16T15:21:44.356Z,75103.81
2023-05-16T15:24:13.268Z,75105.84
2023-05-16T15:26:43.052Z,75116.06
2023-05-16T15:29:12.136Z,75111.97
2023-05-16T15:31:39.957Z,75128.28
2023-05-16T15:34:10.990Z,75138.47
2023-05-16T15:36:40.367Z,75146.63
2023-05-16T15:39:09.619Z,75152.75
2023-05-16T15:42:01.169Z,75156.81
2023-05-16T15:44:28.453Z,75164.97
2023-05-16T15:46:56.311Z,75158.84
2023-05-16T15:49:25.890Z,75167.00
2023-05-16T15:51:54.223Z,75171.09
2023-05-16T15:54:22.217Z,75169.03
2023-05-16T15:56:50.011Z,75164.97
2023-05-16T15:59:18.407Z,75158.84
2023-05-16T16:01:46.337Z,75169.03
2023-05-16T16:04:14.294Z,75160.88
2023-05-16T16:06:43.506Z,75162.94
2023-05-16T16:09:11.906Z,75160.88
2023-05-16T16:11:40.302Z,75152.75
2023-05-16T16:14:11.205Z,75162.94
2023-05-16T16:16:40.635Z,75173.13
2023-05-16T16:19:10.518Z,75173.13
2023-05-16T16:21:41.012Z,75183.31
2023-05-16T16:24:12.046Z,75183.31
2023-05-16T16:26:39.959Z,75183.31
2023-05-16T16:29:07.736Z,75179.25
2023-05-16T16:31:35.629Z,75181.28
2023-05-16T16:34:04.767Z,75181.28
2023-05-16T16:36:34.237Z,75169.03
2023-05-16T16:39:02.015Z,75181.28
2023-05-16T16:41:31.321Z,75177.19
2023-05-16T16:43:59.091Z,75179.25
2023-05-16T16:46:26.996Z,75185.34
2023-05-16T16:48:54.861Z,75193.50
2023-05-16T16:51:22.622Z,75195.53
2023-05-16T16:53:50.392Z,75197.56
2023-05-16T16:56:18.279Z,75195.53
2023-05-16T16:58:47.440Z,75205.72
2023-05-16T17:01:15.300Z,75207.78
2023-05-16T17:03:43.461Z,75203.69
2023-05-16T17:06:13.211Z,75205.72
2023-05-16T17:08:43.396Z,75209.81
2023-05-16T17:11:11.925Z,75197.56
2023-05-16T17:13:41.970Z,75205.72
2023-05-16T17:16:11.389Z,75207.78
2023-05-16T17:18:40.643Z,75207.78
2023-05-16T17:21:11.523Z,75209.81
2023-05-16T17:23:43.324Z,75213.88
2023-05-16T17:26:11.932Z,75209.81
2023-05-16T17:28:39.994Z,75209.81
2023-05-16T17:31:07.858Z,75205.72
2023-05-16T17:33:38.547Z,75207.78
2023-05-16T17:36:07.763Z,75209.81
2023-05-16T17:38:35.714Z,75213.88
2023-05-16T17:41:04.791Z,75211.84
2023-05-16T17:43:32.695Z,75209.81
2023-05-16T17:46:00.514Z,75217.97
2023-05-16T17:48:28.535Z,75215.91
2023-05-16T17:50:57.657Z,75209.81
2023-05-16T17:53:26.710Z,75209.81
2023-05-16T17:55:54.590Z,75217.97
2023-05-16T17:58:22.395Z,75226.13
2023-05-16T18:00:50.429Z,75226.13
2023-05-16T18:03:18.389Z,75234.28
2023-05-16T18:05:46.453Z,75240.38
2023-05-16T18:08:15.646Z,75246.50
2023-05-16T18:10:51.550Z,75250.56
2023-05-16T18:13:20.284Z,75258.72
2023-05-16T18:15:48.144Z,75256.69
2023-05-16T18:18:16.297Z,75262.81
2023-05-16T18:20:44.231Z,75260.75
2023-05-16T18:23:12.199Z,75260.75
2023-05-16T18:25:41.775Z,75262.81
2023-05-16T18:28:10.679Z,75270.97
2023-05-16T18:30:38.812Z,75273.00
2023-05-16T18:33:08.009Z,75283.19
2023-05-16T18:35:36.717Z,75285.22
2023-05-16T18:38:04.847Z,75287.25
2023-05-16T18:40:32.807Z,75283.19
2023-05-16T18:43:01.992Z,75285.22
2023-05-16T18:45:30.237Z,75295.41
2023-05-16T18:47:58.330Z,75295.41
2023-05-16T18:50:26.329Z,75297.47
2023-05-16T18:52:57.359Z,75303.56
2023-05-16T18:55:25.537Z,75303.56
2023-05-16T18:57:53.442Z,75309.69
2023-05-16T19:00:22.601Z,75311.72
2023-05-16T19:02:50.514Z,75307.66
2023-05-16T19:05:19.568Z,75307.66
2023-05-16T19:07:47.876Z,75307.66
2023-05-16T19:10:15.692Z,75307.66
2023-05-16T19:12:46.766Z,75315.81
2023-05-16T19:15:14.657Z,75307.66
2023-05-16T19:17:44.023Z,75315.81
2023-05-16T19:20:12.286Z,75313.75
2023-05-16T19:22:40.150Z,75311.72
2023-05-16T19:25:08.585Z,75305.59
2023-05-16T19:27:36.666Z,75311.72
2023-05-16T19:30:05.107Z,75305.59
2023-05-16T19:32:32.970Z,75307.66
2023-05-16T19:35:02.295Z,75309.69
2023-05-16T19:37:30.166Z,75315.81
2023-05-16T19:39:58.055Z,75309.69
2023-05-16T19:42:25.937Z,75319.88
2023-05-16T19:44:53.815Z,75317.84
2023-05-16T19:47:22.001Z,75319.88
2023-05-16T19:49:50.039Z,75323.94
2023-05-16T19:52:19.251Z,75328.03
2023-05-16T19:54:47.032Z,75323.94
2023-05-16T19:57:14.833Z,75319.88
2023-05-16T19:59:42.641Z,75328.03
2023-05-16T20:02:12.911Z,75328.03
2023-05-16T20:04:40.752Z,75330.06
2023-05-16T20:07:08.691Z,75332.09
2023-05-16T20:09:40.636Z,75336.19
2023-05-16T20:12:09.403Z,75332.09
2023-05-16T20:14:37.188Z,75328.03
2023-05-16T20:17:05.344Z,75334.16
2023-05-16T20:19:33.411Z,75332.09
2023-05-16T20:22:01.424Z,75319.88
2023-05-16T20:24:29.252Z,75332.09
2023-05-16T20:26:58.466Z,75328.03
2023-05-16T20:29:26.459Z,75332.09
2023-05-16T20:31:54.326Z,75326.00
2023-05-16T20:34:22.148Z,75323.94
2023-05-16T20:36:49.943Z,75319.88
2023-05-16T20:39:18.057Z,75319.88
2023-05-16T20:41:45.898Z,75317.84
2023-05-16T20:44:15.335Z,75311.72
2023-05-16T20:46:43.328Z,75315.81
2023-05-16T20:49:11.527Z,75319.88
2023-05-16T20:51:39.339Z,75319.88
2023-05-16T20:54:07.335Z,75319.88
2023-05-16T20:56:35.257Z,75311.72
2023-05-16T20:59:03.868Z,75319.88
2023-05-16T21:01:33.404Z,75311.72
2023-05-16T21:04:01.687Z,75317.84
2023-05-16T21:06:29.520Z,75315.81
2023-05-16T21:08:57.337Z,75311.72
2023-05-16T21:11:25.167Z,75321.91
2023-05-16T21:13:52.938Z,75332.09
2023-05-16T21:16:21.070Z,75332.09
2023-05-16T21:18:50.480Z,75323.94
2023-05-16T21:21:18.370Z,75323.94
2023-05-16T21:23:46.221Z,75328.03
2023-05-16T21:26:14.018Z,75332.09
2023-05-16T21:28:54.496Z,75330.06
2023-05-16T21:31:23.167Z,75328.03
2023-05-16T21:33:52.704Z,75332.09
2023-05-16T21:36:20.859Z,75334.16
2023-05-16T21:38:49.202Z,75344.34
2023-05-16T21:41:18.183Z,75330.06
2023-05-16T21:43:46.158Z,75336.19
2023-05-16T21:46:14.121Z,75334.16
2023-05-16T21:48:42.007Z,75342.28
2023-05-16T21:51:11.335Z,75342.28
2023-05-16T21:53:39.377Z,75348.41
2023-05-16T21:56:07.284Z,75344.34
2023-05-16T21:58:35.063Z,75344.34
2023-05-16T22:01:02.880Z,75348.41
2023-05-16T22:03:30.766Z,75346.38
2023-05-16T22:05:58.968Z,75346.38
2023-05-16T22:08:28.142Z,75356.56
2023-05-16T22:10:56.026Z,75354.53
2023-05-16T22:13:23.786Z,75354.53
2023-05-16T22:16:03.237Z,75360.66
2023-05-16T22:18:32.693Z,75360.66
2023-05-16T22:21:01.121Z,75366.75
2023-05-16T22:23:30.425Z,75370.84
2023-05-16T22:25:58.247Z,75376.94
2023-05-16T22:28:26.216Z,75381.03
2023-05-16T22:30:54.150Z,75376.94
2023-05-16T22:33:23.620Z,75379.00
2023-05-16T22:35:52.727Z,75389.19
2023-05-16T22:38:20.630Z,75389.19
2023-05-16T22:40:50.285Z,75393.25
2023-05-16T22:43:18.105Z,75393.25
2023-05-16T22:45:45.873Z,75395.28
2023-05-16T22:48:13.778Z,75409.56
2023-05-16T22:50:41.789Z,75405.50
2023-05-16T22:53:09.720Z,75415.69
2023-05-16T22:55:37.671Z,75415.69
2023-05-16T22:58:07.040Z,75411.59
2023-05-16T23:00:34.993Z,75409.56
2023-05-16T23:03:02.962Z,75417.72
2023-05-16T23:05:30.984Z,75409.56
2023-05-16T23:07:58.809Z,75417.72
2023-05-16T23:10:26.614Z,75421.78
2023-05-16T23:12:54.453Z,75434.03
2023-05-16T23:15:23.958Z,75434.03
2023-05-16T23:17:51.863Z,75442.19
2023-05-16T23:20:19.981Z,75446.25
2023-05-16T23:22:47.750Z,75460.53
2023-05-16T23:25:15.500Z,75456.44
2023-05-16T23:27:43.344Z,75450.34
2023-05-16T23:30:12.235Z,75466.63
2023-05-16T23:32:41.708Z,75470.72
2023-05-16T23:35:10.608Z,75482.94
2023-05-16T23:37:38.373Z,75482.94
2023-05-16T23:40:07.582Z,75499.25
2023-05-16T23:42:36.749Z,75499.25
2023-05-16T23:45:05.171Z,75503.34
2023-05-16T23:47:33.055Z,75507.41
2023-05-16T23:50:02.331Z,75513.53
2023-05-16T23:52:30.160Z,75525.75
2023-05-16T23:54:57.984Z,75531.88
2023-05-16T23:57:25.863Z,75540.03
2023-05-16T23:59:53.654Z,75540.03
